Abell, MD

11:36 AM EDT on September 02, 2014 (GMT -0400)
Notley Hall Farm | Change Station
CLOSE
Current Station
Personal Weather Station
Location: Chaptico, MD
Elevation: 20 ft
Nearby Weather Stations

Elev 20 ft 38.31 °N, 76.82 °W | Updated 30 seconds ago

Clear
Clear
91.4 °F
Feels Like 105 °F
N
1.0
Wind Variable Wind from WSW
Gusts 2.0 mph

Today
High -- | Low -- °F
--% Chance of Precip.
Yesterday
High -- | Low -- °F
Precip. -- in
6:37 AM 7:35 PM
First Quarter, 52% visible
Pressure 30.01 in
Visibility 10.0 miles
Clouds Scattered Clouds 9500 ft
Heat Index 105 °F
Dew Point 77 °F
Humidity 63%
Rainfall 0.00 in
Snow Depth Not available.
UV 6 out of 12
Pollen 9.80 out of 12
Air Quality Not available.
Flu Activity Not available.
METAR K2W6 021529Z AUTO 24005KT 10SM SCT095 31/20 A3001 RMK AO1

More Conditions Fewer Conditions

Pressure 30.01 in
Visibility 10.0 miles
Clouds Scattered Clouds 9500 ft
Heat Index 105 °F
Dew Point 77 °F
Humidity 63%
Rainfall 0.00 in
Snow Depth Not available.
UV 6 out of 12
Pollen 9.80 out of 12
Air Quality Not available.
Flu Activity Not available.
METAR K2W6 021529Z AUTO 24005KT 10SM SCT095 31/20 A3001 RMK AO1

More Conditions Fewer Conditions

10-Day Weather Forecast

Almanac

Astronomy

Sep. 02, 2014 Rise Set
Actual Time 6:37 AM EDT 7:35 PM EDT
Civil Twilight 6:10 AM EDT 8:02 PM EDT
Nautical Twilight 5:38 AM EDT 8:34 PM EDT
Astronomical Twilight 5:05 AM EDT 9:07 PM EDT
Moon 2:13 PM EDT No Moon Set
Length of Visible Light 13h 51m
Length of Day
12h 57m
Tomorrow will be 2m 23s shorter.
First Quarter, 52% of the Moon is Illuminated
Today
First Quarter
Sep 8
Full
Sep 15
Last Quarter
Sep 24
New
Oct 1
First Quarter

Today's Extremes

State Highs State Lows

Community

WunderPhotos

Upload Photos

1,749,700 photos uploaded!

Nearby

Snow Depth

Station Depth Elevation
No new snow has been reported.

Earthquake Activity

City Distance Mag. Time & Date
No recent earthquake activity has been reported nearby.
Minimum magnitude displayed is 2.5.

Coastal Water Temperatures

Place Temperature
Lewisetta, VA 81.0 °F
Solomons Island, MD 80.1 °F
Bishops Head, MD 81.0 °F

Nearby Weather Stations